Time;durP1;ratioP1;P1;durP2;ratioP2;P2;SDS_P1;SDS_P2;PMS_P1;PMS_P2;Temp;Humidity;BMP_temperature;BMP_pressure;BME280_temperature;BME280_humidity;BME280_pressure;Samples;Min_cycle;Max_cycle;Signal;HPM_P1;HPM_P2
2022/12/26 00:01:23;;;;;;;14.45;8.98;;;34.10;99.90;;;;;;5087754;28;20176;-70
2022/12/26 00:03:50;;;;;;;15.88;9.45;;;34.10;99.90;;;;;;5091449;28;20185;-69
2022/12/26 00:06:21;;;;;;;13.57;9.73;;;34.40;99.90;;;;;;5091273;28;20333;-70
2022/12/26 00:12:10;;;;;;;12.40;9.40;;;33.80;99.90;;;;;;5074666;28;20541;-71
2022/12/26 00:14:39;;;;;;;13.68;10.23;;;34.20;99.90;;;;;;5075226;28;20183;-73
2022/12/26 00:17:06;;;;;;;12.50;8.98;;;34.60;99.90;;;;;;5075429;28;20191;-72
2022/12/26 00:19:34;;;;;;;11.80;9.52;;;35.00;99.90;;;;;;5075162;28;20554;-70
2022/12/26 00:22:01;;;;;;;12.40;9.35;;;35.10;99.90;;;;;;5075064;28;20558;-71
2022/12/26 00:24:28;;;;;;;10.48;9.13;;;34.40;99.90;;;;;;5075057;28;20186;-70
2022/12/26 00:26:56;;;;;;;11.73;8.75;;;33.90;99.90;;;;;;5075412;28;20211;-71
2022/12/26 00:29:23;;;;;;;11.23;8.40;;;34.40;99.90;;;;;;5094013;28;20263;-71
2022/12/26 00:31:50;;;;;;;11.77;8.27;;;35.00;99.90;;;;;;5085944;28;20187;-70
2022/12/26 00:34:18;;;;;;;9.63;7.57;;;35.40;99.90;;;;;;5074869;28;20222;-70
2022/12/26 00:36:45;;;;;;;9.65;7.25;;;35.50;99.90;;;;;;5083533;28;20258;-70
2022/12/26 00:39:16;;;;;;;12.00;8.02;;;34.00;99.90;;;;;;5094656;28;20183;-72
2022/12/26 00:41:43;;;;;;;12.68;8.20;;;33.30;99.90;;;;;;5089053;28;20712;-70
2022/12/26 00:44:11;;;;;;;7.13;6.00;;;34.00;99.90;;;;;;5074780;28;20728;-69
2022/12/26 00:46:38;;;;;;;9.85;6.75;;;34.80;99.90;;;;;;5074539;28;20250;-70
2022/12/26 00:49:05;;;;;;;7.43;6.10;;;35.00;99.90;;;;;;5074363;28;20234;-70
2022/12/26 00:51:33;;;;;;;7.35;5.95;;;35.40;99.90;;;;;;5076367;28;20184;-70
2022/12/26 00:54:00;;;;;;;8.30;5.68;;;35.60;99.90;;;;;;5094610;28;20531;-69
2022/12/26 00:56:28;;;;;;;6.22;5.40;;;35.70;99.90;;;;;;5094520;28;20171;-69
2022/12/26 00:58:55;;;;;;;8.35;5.45;;;36.00;99.90;;;;;;5088302;28;20179;-70
2022/12/26 01:01:23;;;;;;;7.18;5.32;;;36.30;99.00;;;;;;5074602;28;20579;-69
2022/12/26 01:03:51;;;;;;;5.90;5.20;;;36.10;99.90;;;;;;5092636;28;20671;-69
2022/12/26 01:06:18;;;;;;;10.23;5.47;;;35.60;99.90;;;;;;5093850;28;20238;-68
2022/12/26 01:08:46;;;;;;;8.75;4.55;;;35.90;99.90;;;;;;5093639;28;20175;-69
2022/12/26 01:11:15;;;;;;;6.80;4.80;;;36.40;97.90;;;;;;5093990;28;20176;-70
2022/12/26 01:13:42;;;;;;;8.02;4.43;;;36.50;99.90;;;;;;5082519;28;20207;-71
2022/12/26 01:16:10;;;;;;;8.98;4.88;;;36.60;98.00;;;;;;5093375;28;20254;-71
2022/12/26 01:18:37;;;;;;;6.57;3.50;;;36.80;99.20;;;;;;5093955;28;20174;-69
2022/12/26 01:21:08;;;;;;;16.40;5.03;;;36.70;91.50;;;;;;5074000;28;20273;-69
2022/12/26 01:23:35;;;;;;;4.85;4.22;;;36.80;94.50;;;;;;5073772;28;20180;-69
2022/12/26 01:26:07;;;;;;;7.63;4.38;;;36.80;92.30;;;;;;5089068;28;20632;-68
2022/12/26 01:28:35;;;;;;;6.22;5.03;;;37.40;96.40;;;;;;5082004;28;20251;-69
2022/12/26 01:31:03;;;;;;;6.40;4.85;;;37.50;99.90;;;;;;5079737;28;20188;-70
2022/12/26 01:33:32;;;;;;;9.35;4.95;;;36.70;99.90;;;;;;5081487;28;20183;-70
2022/12/26 01:36:00;;;;;;;6.00;5.13;;;36.50;99.90;;;;;;5083325;28;20176;-72
2022/12/26 01:38:27;;;;;;;6.53;4.43;;;36.80;99.90;;;;;;5090440;28;20191;-70
2022/12/26 01:44:00;;;;;;;5.88;4.35;;;36.80;95.40;;;;;;5081696;28;20202;-70
2022/12/26 01:46:38;;;;;;;6.50;4.65;;;36.70;90.80;;;;;;5088386;28;20211;-70
2022/12/26 01:49:46;;;;;;;5.90;5.30;;;36.20;98.20;;;;;;5092307;28;20708;-71
2022/12/26 01:52:21;;;;;;;7.45;6.63;;;36.60;93.90;;;;;;5029357;28;20188;-70
2022/12/26 01:54:52;;;;;;;6.63;5.95;;;36.80;94.90;;;;;;5072183;28;20202;-70
2022/12/26 01:57:28;;;;;;;8.10;6.60;;;36.70;95.50;;;;;;5080355;28;20172;-72
2022/12/26 01:59:57;;;;;;;7.85;6.95;;;36.50;99.90;;;;;;5091004;28;20182;-70
2022/12/26 02:02:27;;;;;;;7.32;6.10;;;36.70;98.10;;;;;;5093416;28;20176;-71
2022/12/26 02:07:45;;;;;;;8.02;6.32;;;36.10;99.90;;;;;;5093702;28;20575;-71
2022/12/26 02:10:17;;;;;;;6.22;5.63;;;36.60;99.90;;;;;;5081991;28;20168;-72
2022/12/26 02:12:45;;;;;;;6.32;4.30;;;36.60;96.50;;;;;;5073153;28;20215;-70
2022/12/26 02:15:15;;;;;;;8.15;3.92;;;36.30;78.40;;;;;;5072999;28;20400;-70
2022/12/26 02:17:43;;;;;;;9.63;4.35;;;36.20;85.60;;;;;;5073040;28;20541;-72
2022/12/26 02:20:21;;;;;;;6.15;4.32;;;36.30;78.00;;;;;;5072862;28;20172;-71
2022/12/26 02:23:03;;;;;;;4.97;4.28;;;36.20;91.80;;;;;;5073113;28;20666;-71
2022/12/26 02:25:46;;;;;;;5.85;4.20;;;36.20;91.00;;;;;;5073180;28;20271;-70
2022/12/26 02:28:34;;;;;;;4.70;4.22;;;36.10;98.20;;;;;;5072945;28;20234;-71
2022/12/26 02:31:46;;;;;;;7.40;4.07;;;36.40;98.50;;;;;;5072281;28;20199;-71
2022/12/26 02:34:30;;;;;;;7.05;3.72;;;36.40;96.80;;;;;;5071153;28;20623;-70
2022/12/26 02:37:12;;;;;;;4.07;3.47;;;36.60;94.90;;;;;;5078043;28;20193;-70
2022/12/26 02:40:00;;;;;;;3.58;2.70;;;36.60;79.30;;;;;;5092968;28;20171;-70
2022/12/26 02:42:30;;;;;;;7.35;3.30;;;36.50;74.80;;;;;;5093052;28;20652;-70
2022/12/26 02:48:26;;;;;;;3.65;2.78;;;36.10;74.90;;;;;;5077594;28;20237;-70
2022/12/26 03:15:18;;;;;;;1.77;0.90;;;37.00;29.20;;;;;;5092933;28;20560;-70
2022/12/26 03:18:05;;;;;;;4.28;0.75;;;36.90;36.10;;;;;;5092711;28;20179;-70
2022/12/26 03:20:37;;;;;;;2.05;0.52;;;37.00;39.70;;;;;;5086444;28;20580;-70
2022/12/26 03:23:15;;;;;;;2.42;0.57;;;37.10;29.30;;;;;;5081378;28;20176;-70
2022/12/26 03:28:43;;;;;;;2.55;0.70;;;36.70;29.80;;;;;;5072697;28;20195;-70
2022/12/26 03:31:12;;;;;;;1.30;0.50;;;36.30;31.00;;;;;;5072358;28;20297;-69
2022/12/26 03:37:01;;;;;;;1.65;0.50;;;36.20;29.40;;;;;;5072725;28;20183;-70
2022/12/26 04:44:05;;;;;;;3.47;0.40;;;37.00;27.20;;;;;;5071663;28;20301;-71
2022/12/26 04:46:38;;;;;;;1.25;0.40;;;37.10;23.70;;;;;;5073382;28;20203;-72
2022/12/26 04:51:59;;;;;;;3.90;0.45;;;36.60;18.80;;;;;;5093719;28;20684;-71
2022/12/26 04:54:27;;;;;;;2.42;0.47;;;36.60;19.10;;;;;;5093172;28;20648;-71
2022/12/26 04:56:55;;;;;;;0.57;0.30;;;36.70;18.70;;;;;;5093502;28;20183;-72
2022/12/26 04:59:23;;;;;;;3.05;0.50;;;36.80;17.50;;;;;;5093300;28;20174;-72
2022/12/26 05:10:29;;;;;;;2.65;0.40;;;36.80;18.30;;;;;;5045595;28;20646;-71
2022/12/26 05:12:56;;;;;;;2.67;0.52;;;36.70;15.10;;;;;;5048056;28;20184;-71
2022/12/26 05:15:24;;;;;;;0.20;0.20;;;36.80;14.50;;;;;;5065817;28;20629;-72
2022/12/26 05:29:05;;;;;;;0.52;0.30;;;36.00;12.50;;;;;;5093042;28;20189;-71
2022/12/26 05:31:33;;;;;;;1.48;0.32;;;36.10;11.80;;;;;;5092671;28;20172;-69
2022/12/26 05:34:10;;;;;;;1.00;0.40;;;36.10;8.90;;;;;;5086511;28;20218;-69
2022/12/26 05:36:47;;;;;;;0.75;0.30;;;35.70;11.90;;;;;;5088199;28;20274;-70
2022/12/26 05:39:15;;;;;;;0.28;0.15;;;35.70;8.70;;;;;;5071215;28;20632;-71
2022/12/26 05:41:42;;;;;;;0.35;0.30;;;36.00;7.80;;;;;;5072574;28;20271;-70
2022/12/26 05:44:10;;;;;;;0.85;0.40;;;36.00;8.70;;;;;;5072919;28;20183;-70
2022/12/26 05:46:38;;;;;;;1.40;0.50;;;35.70;9.30;;;;;;5083424;28;20195;-70
2022/12/26 05:49:06;;;;;;;0.77;0.50;;;35.80;10.80;;;;;;5085024;28;20536;-71
2022/12/26 05:51:34;;;;;;;1.65;0.70;;;35.90;18.10;;;;;;5092510;28;20248;-71
2022/12/26 05:54:02;;;;;;;2.30;0.80;;;35.50;20.60;;;;;;5078816;28;20225;-70
2022/12/26 05:56:30;;;;;;;3.45;0.60;;;35.50;25.70;;;;;;5092458;28;20550;-70
2022/12/26 05:59:00;;;;;;;1.85;0.70;;;35.40;26.80;;;;;;5081534;28;20195;-70
2022/12/26 06:01:28;;;;;;;3.22;0.65;;;35.40;30.30;;;;;;5071843;28;20172;-70
2022/12/26 06:03:59;;;;;;;3.50;0.73;;;35.30;27.00;;;;;;5075191;28;20490;-70
2022/12/26 06:06:27;;;;;;;3.40;0.57;;;35.10;29.00;;;;;;5091858;28;20231;-70
2022/12/26 06:08:56;;;;;;;2.22;0.80;;;35.00;29.80;;;;;;5091789;28;20214;-71
2022/12/26 06:11:25;;;;;;;1.58;0.70;;;35.00;31.00;;;;;;5079530;28;20184;-70
2022/12/26 06:13:53;;;;;;;5.20;0.77;;;34.90;32.50;;;;;;5071889;28;20219;-71
2022/12/26 06:16:20;;;;;;;1.92;0.52;;;34.70;33.10;;;;;;5071379;28;20200;-71
2022/12/26 06:18:48;;;;;;;1.70;0.50;;;34.70;26.80;;;;;;5071937;28;20589;-71
2022/12/26 06:21:18;;;;;;;2.42;0.60;;;34.50;27.00;;;;;;5071845;28;20176;-71
2022/12/26 06:23:46;;;;;;;2.15;0.80;;;34.50;26.60;;;;;;5071713;28;20224;-71
2022/12/26 06:26:14;;;;;;;2.67;0.88;;;34.40;27.40;;;;;;5071792;28;20607;-71
2022/12/26 06:28:43;;;;;;;1.58;0.52;;;34.10;27.30;;;;;;5071793;28;20654;-71
2022/12/26 06:31:19;;;;;;;4.25;0.68;;;34.40;26.70;;;;;;5071478;28;20685;-70
2022/12/26 06:33:52;;;;;;;0.73;0.47;;;34.20;25.50;;;;;;5071977;28;20183;-70
2022/12/26 06:36:21;;;;;;;3.22;0.65;;;34.20;26.90;;;;;;5071394;28;20168;-72
2022/12/26 06:38:49;;;;;;;2.85;0.70;;;34.20;25.90;;;;;;5074910;28;20622;-70
2022/12/26 06:41:18;;;;;;;1.45;0.68;;;34.00;24.40;;;;;;5071665;28;20706;-70
2022/12/26 06:43:46;;;;;;;1.52;0.57;;;34.00;23.60;;;;;;5071597;28;20176;-71
2022/12/26 06:46:19;;;;;;;3.33;0.80;;;34.00;23.70;;;;;;5073841;28;20164;-70
2022/12/26 06:48:47;;;;;;;0.80;0.50;;;34.00;22.10;;;;;;5076364;28;20211;-71
2022/12/26 06:51:17;;;;;;;0.55;0.40;;;33.60;23.10;;;;;;5071100;28;20199;-72
2022/12/26 06:53:45;;;;;;;1.42;0.50;;;33.40;22.20;;;;;;5075031;28;20394;-70
2022/12/26 06:56:19;;;;;;;1.25;0.52;;;33.30;22.80;;;;;;5091846;28;20182;-70
2022/12/26 06:58:46;;;;;;;1.52;0.85;;;33.40;23.20;;;;;;5090122;28;20186;-69
2022/12/26 07:01:18;;;;;;;1.48;0.57;;;33.20;21.80;;;;;;5077508;28;20272;-69
2022/12/26 07:03:46;;;;;;;3.13;0.93;;;33.10;22.50;;;;;;5083269;28;20758;-72
2022/12/26 07:06:18;;;;;;;2.85;0.55;;;33.00;24.00;;;;;;5084719;28;20223;-69
2022/12/26 07:08:46;;;;;;;1.60;0.50;;;33.00;23.90;;;;;;5090582;28;20183;-71
2022/12/26 07:11:15;;;;;;;1.35;0.65;;;32.70;25.10;;;;;;5071536;28;20172;-70
2022/12/26 07:13:43;;;;;;;2.58;0.60;;;32.60;25.60;;;;;;5069800;28;20183;-69
2022/12/26 07:16:11;;;;;;;1.90;1.10;;;32.60;26.50;;;;;;5072678;28;20332;-69
2022/12/26 07:18:38;;;;;;;6.22;1.33;;;32.60;25.50;;;;;;5075245;28;20184;-69
2022/12/26 07:21:11;;;;;;;3.42;0.93;;;32.50;25.60;;;;;;5077289;28;20180;-69
2022/12/26 07:23:39;;;;;;;2.15;1.00;;;32.30;25.60;;;;;;5095500;28;20167;-70
2022/12/26 07:26:07;;;;;;;2.40;0.60;;;32.30;26.50;;;;;;5095348;28;20680;-68
2022/12/26 07:28:34;;;;;;;3.63;0.90;;;32.40;26.40;;;;;;5094881;28;20217;-71
2022/12/26 07:31:02;;;;;;;2.03;0.75;;;32.20;26.40;;;;;;5095086;28;20265;-70
2022/12/26 07:33:30;;;;;;;1.27;0.67;;;32.20;27.20;;;;;;5095274;28;20240;-69
2022/12/26 07:36:02;;;;;;;2.13;0.40;;;32.10;27.50;;;;;;5093473;28;20925;-69
2022/12/26 07:38:30;;;;;;;1.30;0.55;;;32.10;27.70;;;;;;5083080;28;20530;-70
2022/12/26 07:40:58;;;;;;;4.65;2.83;;;32.10;28.30;;;;;;5074778;28;20172;-73
2022/12/26 07:43:26;;;;;;;2.72;1.10;;;32.00;27.50;;;;;;5074416;28;20521;-70
2022/12/26 07:45:57;;;;;;;3.47;1.35;;;31.90;28.90;;;;;;5074762;28;20510;-70
2022/12/26 07:48:24;;;;;;;4.60;1.85;;;31.90;29.40;;;;;;5074704;28;20298;-70
2022/12/26 07:50:52;;;;;;;11.67;1.77;;;31.80;29.40;;;;;;5074274;28;20233;-69
2022/12/26 07:53:19;;;;;;;5.27;1.40;;;31.70;30.40;;;;;;5084046;28;20175;-74
2022/12/26 07:55:47;;;;;;;3.65;1.00;;;31.50;31.00;;;;;;5094909;28;20175;-69
2022/12/26 07:58:14;;;;;;;2.28;0.93;;;31.40;32.40;;;;;;5086348;28;20262;-72
2022/12/26 08:00:41;;;;;;;7.20;1.07;;;31.40;32.80;;;;;;5072977;28;20539;-69
2022/12/26 08:03:10;;;;;;;1.35;0.80;;;31.30;33.30;;;;;;5073100;28;20172;-70
2022/12/26 08:05:38;;;;;;;4.00;1.00;;;31.30;35.30;;;;;;5076635;28;20233;-70
2022/12/26 08:08:05;;;;;;;3.65;1.00;;;31.30;35.10;;;;;;5091694;28;20215;-69
2022/12/26 08:10:33;;;;;;;1.53;0.77;;;31.20;34.90;;;;;;5074507;28;20591;-70
2022/12/26 08:13:01;;;;;;;1.25;0.70;;;31.10;34.90;;;;;;5087781;28;20187;-69
2022/12/26 08:15:29;;;;;;;2.83;0.70;;;31.20;34.50;;;;;;5081165;28;20198;-71
2022/12/26 08:17:56;;;;;;;3.90;0.90;;;31.20;32.20;;;;;;5094162;28;20182;-73
2022/12/26 08:20:24;;;;;;;2.13;0.73;;;31.10;32.10;;;;;;5084310;28;20664;-70
2022/12/26 08:22:52;;;;;;;2.87;0.80;;;31.00;32.70;;;;;;5074094;28;20184;-70
2022/12/26 08:25:20;;;;;;;2.93;0.90;;;30.90;32.60;;;;;;5074002;28;20595;-72
2022/12/26 08:27:48;;;;;;;4.47;0.93;;;30.70;34.30;;;;;;5072716;28;20216;-70
2022/12/26 08:30:15;;;;;;;4.00;0.93;;;30.50;36.70;;;;;;5087903;28;20680;-69
2022/12/26 08:32:44;;;;;;;2.73;1.03;;;30.30;39.20;;;;;;5083133;28;20184;-71
2022/12/26 08:35:11;;;;;;;4.50;1.20;;;30.10;39.10;;;;;;5073484;28;20171;-69
2022/12/26 08:37:39;;;;;;;3.43;0.83;;;29.90;41.00;;;;;;5079554;28;20224;-71
2022/12/26 08:40:07;;;;;;;3.67;1.00;;;29.60;41.40;;;;;;5089059;28;20273;-68
2022/12/26 08:42:35;;;;;;;2.77;0.70;;;29.50;44.20;;;;;;5088167;28;20661;-74
2022/12/26 08:45:03;;;;;;;1.10;0.73;;;29.40;42.60;;;;;;5073631;28;20195;-69
2022/12/26 08:47:31;;;;;;;2.80;1.00;;;29.20;44.30;;;;;;5073643;28;20200;-68
2022/12/26 08:49:59;;;;;;;3.63;1.07;;;29.10;44.20;;;;;;5073111;28;20224;-68
2022/12/26 08:52:27;;;;;;;5.10;1.17;;;29.00;45.20;;;;;;5075810;28;20193;-69
2022/12/26 08:54:54;;;;;;;2.33;1.00;;;28.80;47.20;;;;;;5093632;28;20761;-72
2022/12/26 08:57:22;;;;;;;4.97;1.30;;;28.60;51.50;;;;;;5093401;28;20918;-68
2022/12/26 08:59:50;;;;;;;2.80;1.03;;;28.50;52.90;;;;;;5088220;28;20668;-68
2022/12/26 09:02:18;;;;;;;4.60;1.10;;;28.40;56.00;;;;;;5073813;28;20228;-69
2022/12/26 09:04:46;;;;;;;2.40;1.10;;;28.30;54.70;;;;;;5082251;28;20230;-70
2022/12/26 09:07:13;;;;;;;3.37;1.27;;;28.10;56.70;;;;;;5095634;28;20571;-69
2022/12/26 09:09:42;;;;;;;3.97;1.17;;;28.00;58.80;;;;;;5097257;28;20181;-71
2022/12/26 09:12:10;;;;;;;5.50;1.50;;;28.00;60.10;;;;;;5081881;28;20721;-73
2022/12/26 09:14:38;;;;;;;2.27;0.90;;;27.80;63.10;;;;;;5073994;28;20168;-69
2022/12/26 09:17:06;;;;;;;3.83;1.03;;;27.70;64.20;;;;;;5074231;28;20267;-70
2022/12/26 09:19:34;;;;;;;2.20;0.83;;;27.70;66.50;;;;;;5073889;28;20199;-70
2022/12/26 09:24:49;;;;;;;3.73;1.10;;;27.30;74.00;;;;;;5072825;28;20193;-69
2022/12/26 09:27:17;;;;;;;3.77;0.90;;;27.20;79.50;;;;;;5078683;28;20211;-70
2022/12/26 09:29:45;;;;;;;4.73;1.17;;;27.10;86.00;;;;;;5073911;28;20604;-69
2022/12/26 09:32:12;;;;;;;4.70;1.37;;;27.00;91.20;;;;;;5084237;28;20183;-69
2022/12/26 09:34:40;;;;;;;2.10;1.20;;;26.80;99.90;;;;;;5094116;28;20183;-69
2022/12/26 09:37:08;;;;;;;5.00;1.27;;;26.60;99.90;;;;;;5092764;28;20654;-69
2022/12/26 09:39:36;;;;;;;3.27;1.73;;;26.40;99.90;;;;;;5093508;28;20230;-69
2022/12/26 09:42:04;;;;;;;7.83;1.70;;;26.30;99.90;;;;;;5084577;28;20180;-71
2022/12/26 09:44:48;;;;;;;3.93;1.30;;;26.30;99.90;;;;;;5073624;28;20168;-71
2022/12/26 09:47:30;;;;;;;5.23;1.60;;;26.20;99.90;;;;;;5073545;28;20223;-69
2022/12/26 09:50:14;;;;;;;5.50;1.97;;;26.10;99.90;;;;;;5074273;28;20221;-69
2022/12/26 09:53:07;;;;;;;3.97;1.40;;;26.00;99.90;;;;;;5073128;28;20184;-70
2022/12/26 09:56:03;;;;;;;4.77;1.57;;;25.90;99.90;;;;;;5073474;28;20168;-69
2022/12/26 09:58:55;;;;;;;5.37;1.80;;;25.80;99.90;;;;;;5073038;28;20179;-70
2022/12/26 10:01:33;;;;;;;3.80;1.40;;;25.60;99.90;;;;;;5062477;28;20180;-69
2022/12/26 10:04:06;;;;;;;6.27;1.40;;;25.50;99.90;;;;;;5076420;28;20596;-70
2022/12/26 10:06:47;;;;;;;3.53;1.50;;;25.30;99.90;;;;;;5081777;28;20203;-69
2022/12/26 10:09:39;;;;;;;5.77;1.50;;;25.20;99.90;;;;;;5078420;28;20257;-69
2022/12/26 10:12:37;;;;;;;5.17;1.70;;;25.10;99.90;;;;;;5085307;28;20190;-69
2022/12/26 10:15:34;;;;;;;5.07;1.90;;;25.10;99.90;;;;;;5093513;28;20209;-69
2022/12/26 10:18:15;;;;;;;3.23;1.80;;;25.20;99.90;;;;;;5060731;28;20198;-70
2022/12/26 10:21:07;;;;;;;6.23;2.10;;;25.00;99.90;;;;;;5092003;28;20223;-70
2022/12/26 10:27:12;;;;;;;4.67;1.40;;;24.80;99.90;;;;;;5072362;28;20268;-71
2022/12/26 10:29:47;;;;;;;3.47;1.33;;;24.80;99.90;;;;;;5075662;28;20175;-71
2022/12/26 10:32:54;;;;;;;4.93;1.63;;;24.60;99.90;;;;;;5078654;28;20567;-70
2022/12/26 10:35:50;;;;;;;5.90;1.60;;;24.50;99.90;;;;;;4994121;28;20221;-70
2022/12/26 10:38:37;;;;;;;4.33;1.47;;;24.40;99.90;;;;;;5080280;28;20199;-70
2022/12/26 10:41:13;;;;;;;4.23;1.60;;;24.40;99.90;;;;;;5090309;28;20228;-70
2022/12/26 10:43:43;;;;;;;6.27;1.63;;;24.20;99.90;;;;;;5074255;28;20179;-69
2022/12/26 10:46:20;;;;;;;3.93;1.70;;;24.30;99.90;;;;;;5089890;28;20175;-69
2022/12/26 10:48:48;;;;;;;4.97;1.73;;;24.20;99.90;;;;;;5092999;28;20187;-69
2022/12/26 10:51:17;;;;;;;4.70;1.80;;;24.10;99.90;;;;;;5094488;28;20266;-71
2022/12/26 10:53:51;;;;;;;5.50;1.50;;;24.10;99.90;;;;;;5096232;28;20182;-69
2022/12/26 10:56:21;;;;;;;9.23;2.17;;;24.00;99.90;;;;;;5089097;28;20175;-70
2022/12/26 10:59:01;;;;;;;4.20;1.87;;;23.90;99.90;;;;;;5076845;28;20175;-71
2022/12/26 11:01:38;;;;;;;7.47;1.60;;;23.80;99.90;;;;;;5076709;28;20172;-70
2022/12/26 11:04:19;;;;;;;8.50;2.70;;;23.70;99.90;;;;;;5076731;28;20210;-69
2022/12/26 11:06:51;;;;;;;4.23;1.90;;;23.60;99.90;;;;;;5076598;28;20207;-69
2022/12/26 11:09:44;;;;;;;8.27;2.00;;;23.50;99.90;;;;;;5076687;28;20175;-70
2022/12/26 11:12:28;;;;;;;4.87;2.03;;;23.40;99.90;;;;;;5077913;28;20544;-70
2022/12/26 11:15:03;;;;;;;6.03;1.83;;;23.30;99.90;;;;;;5088639;28;20597;-69
2022/12/26 11:17:33;;;;;;;7.57;2.40;;;23.30;99.90;;;;;;5076734;28;20174;-72
2022/12/26 11:20:16;;;;;;;12.17;2.30;;;23.30;99.90;;;;;;5076565;28;20168;-71
2022/12/26 11:22:44;;;;;;;6.07;2.13;;;23.30;99.90;;;;;;5076530;28;20255;-69
2022/12/26 11:25:17;;;;;;;7.00;2.07;;;23.20;99.90;;;;;;5085855;28;20176;-69
2022/12/26 11:27:50;;;;;;;5.30;2.07;;;23.10;99.90;;;;;;5096707;28;20564;-69
2022/12/26 11:30:21;;;;;;;7.33;1.93;;;23.00;99.90;;;;;;5096725;28;20174;-69
2022/12/26 11:33:09;;;;;;;4.87;2.50;;;22.90;99.90;;;;;;5087722;28;20171;-69
2022/12/26 11:35:45;;;;;;;6.10;1.80;;;22.90;99.90;;;;;;5088944;28;20186;-69
2022/12/26 11:38:33;;;;;;;6.57;1.90;;;22.80;99.90;;;;;;5085400;28;20529;-70
2022/12/26 11:43:50;;;;;;;7.10;2.20;;;22.70;99.90;;;;;;5076437;28;20605;-70
2022/12/26 11:46:18;;;;;;;5.27;2.43;;;22.70;99.90;;;;;;5094287;28;20186;-69
2022/12/26 11:52:36;;;;;;;7.57;1.97;;;22.60;99.90;;;;;;5095510;28;20188;-70
2022/12/26 11:55:24;;;;;;;7.13;2.20;;;22.50;99.90;;;;;;5085784;28;20179;-71
2022/12/26 11:58:05;;;;;;;4.50;2.13;;;22.50;99.90;;;;;;5108130;28;20184;-70
2022/12/26 12:00:38;;;;;;;7.73;2.40;;;22.40;99.90;;;;;;5076083;28;20176;-69
2022/12/26 12:03:12;;;;;;;7.97;2.43;;;22.30;99.90;;;;;;5074486;28;20176;-70
2022/12/26 12:05:52;;;;;;;6.30;2.13;;;22.30;99.90;;;;;;5090054;28;20222;-70
2022/12/26 12:09:03;;;;;;;9.23;4.37;;;22.30;99.90;;;;;;5095873;28;20645;-70
2022/12/26 12:11:45;;;;;;;6.90;3.20;;;22.40;99.90;;;;;;5075497;28;20183;-70
2022/12/26 12:14:34;;;;;;;5.73;2.80;;;22.40;99.90;;;;;;5092751;28;20183;-70
2022/12/26 12:17:25;;;;;;;9.07;3.10;;;22.40;99.90;;;;;;5075681;28;20186;-70
2022/12/26 12:20:19;;;;;;;6.37;2.57;;;22.30;99.90;;;;;;5039026;28;20645;-70
2022/12/26 12:23:10;;;;;;;6.03;2.80;;;22.20;99.90;;;;;;5061313;28;20192;-70
2022/12/26 12:25:58;;;;;;;3.70;1.90;;;22.10;99.90;;;;;;5086613;28;20515;-70
2022/12/26 12:28:45;;;;;;;7.27;2.20;;;22.00;99.90;;;;;;5095422;28;20218;-69
2022/12/26 12:31:24;;;;;;;9.23;2.93;;;21.90;99.90;;;;;;5090127;28;20183;-70
2022/12/26 12:34:24;;;;;;;7.03;1.87;;;21.80;99.90;;;;;;5075008;28;20225;-69
2022/12/26 12:37:02;;;;;;;5.03;1.97;;;21.70;99.90;;;;;;5075092;28;20637;-70
2022/12/26 12:39:42;;;;;;;5.80;1.90;;;21.70;99.90;;;;;;5075053;28;20183;-69
2022/12/26 12:42:29;;;;;;;8.33;2.30;;;21.60;99.90;;;;;;5075414;28;20176;-68
2022/12/26 12:45:29;;;;;;;9.97;2.03;;;21.50;99.90;;;;;;5073670;28;20211;-69
2022/12/26 12:47:57;;;;;;;5.20;1.97;;;21.50;99.90;;;;;;5074607;28;20250;-69
2022/12/26 12:50:30;;;;;;;6.17;2.03;;;21.40;99.90;;;;;;5075191;28;20592;-69
2022/12/26 12:53:24;;;;;;;7.77;2.13;;;21.40;99.90;;;;;;5074838;28;20183;-70
2022/12/26 12:56:33;;;;;;;5.53;1.77;;;21.30;99.90;;;;;;5091411;28;20644;-70
2022/12/26 12:59:18;;;;;;;7.73;2.13;;;21.30;99.90;;;;;;5090330;28;20181;-69
2022/12/26 13:01:51;;;;;;;7.07;2.00;;;21.20;99.90;;;;;;5073183;28;20210;-70
2022/12/26 13:04:18;;;;;;;7.17;2.10;;;21.20;99.90;;;;;;5077796;28;20250;-69
2022/12/26 13:06:56;;;;;;;7.87;2.30;;;21.10;99.90;;;;;;5094526;28;20700;-69
2022/12/26 13:09:32;;;;;;;4.53;1.90;;;21.00;99.90;;;;;;5094949;28;20170;-71
2022/12/26 13:12:06;;;;;;;5.83;2.30;;;20.90;99.90;;;;;;5094484;28;20240;-70
2022/12/26 13:14:48;;;;;;;6.33;2.07;;;20.90;99.90;;;;;;5088450;28;20229;-70
2022/12/26 13:17:47;;;;;;;4.80;1.93;;;20.90;99.90;;;;;;5074457;28;20171;-70
2022/12/26 13:20:25;;;;;;;4.60;1.77;;;20.90;99.90;;;;;;5074271;28;20771;-71
2022/12/26 13:26:11;;;;;;;8.10;2.73;;;20.90;99.90;;;;;;5092718;28;20190;-70
2022/12/26 13:28:59;;;;;;;5.67;2.63;;;20.80;99.90;;;;;;5073849;28;20310;-70
2022/12/26 13:31:34;;;;;;;7.30;2.67;;;20.70;99.90;;;;;;5074174;28;20612;-69
2022/12/26 13:34:03;;;;;;;6.77;2.73;;;20.60;99.90;;;;;;5075598;28;20176;-70
2022/12/26 13:36:43;;;;;;;5.57;2.50;;;20.60;99.90;;;;;;5094201;28;20233;-69
2022/12/26 13:39:25;;;;;;;7.60;2.60;;;20.50;99.90;;;;;;5094312;28;20182;-69
2022/12/26 13:45:08;;;;;;;8.63;2.93;;;20.50;99.90;;;;;;5084636;28;20189;-69
2022/12/26 13:47:38;;;;;;;5.83;2.40;;;20.40;99.90;;;;;;5073677;28;20222;-69
2022/12/26 13:50:42;;;;;;;6.33;2.37;;;20.40;99.90;;;;;;5073870;28;20716;-69
2022/12/26 13:53:25;;;;;;;6.87;2.27;;;20.30;99.90;;;;;;5083414;28;20186;-69
2022/12/26 13:55:59;;;;;;;11.00;2.80;;;20.30;99.90;;;;;;5092653;28;20189;-69
2022/12/26 13:58:38;;;;;;;8.53;2.53;;;20.30;99.90;;;;;;5073721;28;20178;-68
2022/12/26 14:01:19;;;;;;;6.27;2.50;;;20.20;99.90;;;;;;5073444;28;20182;-69
2022/12/26 14:04:13;;;;;;;9.80;2.83;;;20.20;99.90;;;;;;5074285;28;20773;-69
2022/12/26 14:07:13;;;;;;;4.50;2.00;;;20.10;99.90;;;;;;5093675;28;20201;-69
2022/12/26 14:10:03;;;;;;;7.67;2.67;;;20.10;99.90;;;;;;5093789;28;20181;-69
2022/12/26 14:12:55;;;;;;;5.40;1.73;;;20.10;99.90;;;;;;5093652;28;20265;-69
2022/12/26 14:15:37;;;;;;;8.13;2.10;;;20.10;99.90;;;;;;5092886;28;20185;-69
2022/12/26 14:18:42;;;;;;;8.17;2.53;;;20.10;99.90;;;;;;5093516;28;20188;-70
2022/12/26 14:21:38;;;;;;;6.23;2.20;;;20.10;99.90;;;;;;5058205;28;20194;-69
2022/12/26 14:24:21;;;;;;;6.63;1.97;;;20.10;99.90;;;;;;5080697;28;20242;-70
2022/12/26 14:27:00;;;;;;;6.50;2.33;;;20.10;99.90;;;;;;5092707;28;20202;-70
2022/12/26 14:29:50;;;;;;;10.73;2.40;;;19.90;99.90;;;;;;5093517;28;20167;-70
2022/12/26 14:32:36;;;;;;;9.67;2.40;;;19.90;99.90;;;;;;5093117;28;20531;-70
2022/12/26 14:35:30;;;;;;;6.73;2.40;;;19.80;99.90;;;;;;5077644;28;20182;-69
2022/12/26 14:38:18;;;;;;;8.93;2.30;;;19.70;99.90;;;;;;5073163;28;20629;-70
2022/12/26 14:41:03;;;;;;;8.30;2.07;;;19.70;99.90;;;;;;5073333;28;20619;-69
2022/12/26 14:43:30;;;;;;;8.47;2.27;;;19.60;99.90;;;;;;5074907;28;20258;-70
2022/12/26 14:45:59;;;;;;;6.67;2.47;;;19.60;99.90;;;;;;5091458;28;20193;-69
2022/12/26 14:48:29;;;;;;;9.20;2.40;;;19.50;99.90;;;;;;5093199;28;20248;-69
2022/12/26 14:51:14;;;;;;;13.60;2.93;;;19.40;99.90;;;;;;5092744;28;20178;-69
2022/12/26 14:53:44;;;;;;;7.57;2.33;;;19.40;99.90;;;;;;5089529;28;20189;-69
2022/12/26 14:56:20;;;;;;;9.77;2.50;;;19.40;99.90;;;;;;5072881;28;20613;-69
2022/12/26 14:58:49;;;;;;;8.07;2.17;;;19.40;99.90;;;;;;5072720;28;20636;-68
2022/12/26 15:01:17;;;;;;;8.17;2.63;;;19.40;99.90;;;;;;5072902;28;20211;-69
2022/12/26 15:04:02;;;;;;;8.67;2.30;;;19.40;99.90;;;;;;5078760;28;20175;-69
2022/12/26 15:06:39;;;;;;;7.80;2.57;;;19.40;99.90;;;;;;5091609;28;20313;-70
2022/12/26 15:09:33;;;;;;;10.40;2.87;;;19.30;99.90;;;;;;5093186;28;20189;-69
2022/12/26 15:12:13;;;;;;;7.97;2.57;;;19.30;99.90;;;;;;5093400;28;20218;-71
2022/12/26 15:14:46;;;;;;;7.07;2.27;;;19.20;99.90;;;;;;5079037;28;20221;-69
2022/12/26 15:17:25;;;;;;;8.57;2.33;;;19.20;99.90;;;;;;5072623;28;20179;-69
2022/12/26 15:20:08;;;;;;;11.13;2.60;;;19.20;99.90;;;;;;5071475;28;20534;-70
2022/12/26 15:22:59;;;;;;;7.97;2.10;;;19.20;99.90;;;;;;5073056;28;20185;-70
2022/12/26 15:25:49;;;;;;;9.60;2.40;;;19.20;99.90;;;;;;5092362;28;20189;-69
2022/12/26 15:28:42;;;;;;;6.07;1.87;;;19.20;99.90;;;;;;5092775;28;20214;-69
2022/12/26 15:31:28;;;;;;;7.13;2.20;;;19.10;99.90;;;;;;5092608;28;20175;-69
2022/12/26 15:34:17;;;;;;;7.37;2.37;;;19.00;99.90;;;;;;5088694;28;20184;-69
2022/12/26 15:36:55;;;;;;;5.80;1.70;;;19.00;99.90;;;;;;5074909;28;20183;-71
2022/12/26 15:39:34;;;;;;;6.47;2.10;;;18.90;99.90;;;;;;5076145;28;20171;-70
2022/12/26 15:42:19;;;;;;;7.90;2.20;;;18.90;99.90;;;;;;5085340;28;20187;-69
2022/12/26 15:44:56;;;;;;;6.40;1.80;;;18.80;99.90;;;;;;5080059;28;20605;-70
2022/12/26 15:47:32;;;;;;;5.97;2.23;;;18.80;99.90;;;;;;5075890;28;20217;-70
2022/12/26 15:50:27;;;;;;;10.30;2.80;;;18.80;99.90;;;;;;5076492;28;20362;-69
2022/12/26 15:53:16;;;;;;;5.13;2.10;;;18.80;99.90;;;;;;5076112;28;20182;-69
2022/12/26 15:56:03;;;;;;;8.73;2.37;;;18.80;99.90;;;;;;5075766;28;20192;-69